createdAt,value
2023-06-10T00:00:37.494Z,15.59
2023-06-10T00:03:06.007Z,15.42
2023-06-10T00:05:36.395Z,15.36
2023-06-10T00:08:08.408Z,15.42
2023-06-10T00:10:37.649Z,15.27
2023-06-10T00:13:06.011Z,15.25
2023-06-10T00:15:34.863Z,15.36
2023-06-10T00:18:03.517Z,15.28
2023-06-10T00:20:32.810Z,15.22
2023-06-10T00:23:02.432Z,15.20
2023-06-10T00:25:32.847Z,15.28
2023-06-10T00:28:00.579Z,15.32
2023-06-10T00:30:31.111Z,15.30
2023-06-10T00:32:59.095Z,15.13
2023-06-10T00:35:28.597Z,15.16
2023-06-10T00:37:56.548Z,15.04
2023-06-10T00:40:25.481Z,15.00
2023-06-10T00:42:54.855Z,14.98
2023-06-10T00:45:23.647Z,14.82
2023-06-10T00:47:53.629Z,14.92
2023-06-10T00:50:21.815Z,14.88
2023-06-10T00:52:53.447Z,14.79
2023-06-10T00:55:24.480Z,14.85
2023-06-10T00:57:56.500Z,14.93
2023-06-10T01:00:24.560Z,14.74
2023-06-10T01:02:53.669Z,14.90
2023-06-10T01:05:22.900Z,14.88
2023-06-10T01:08:00.464Z,14.89
2023-06-10T01:10:35.053Z,14.73
2023-06-10T01:13:08.488Z,14.77
2023-06-10T01:15:37.678Z,14.64
2023-06-10T01:18:11.253Z,14.67
2023-06-10T01:20:41.149Z,14.53
2023-06-10T01:23:11.539Z,14.55
2023-06-10T01:25:41.216Z,14.49
2023-06-10T01:28:15.474Z,14.39
2023-06-10T01:30:50.657Z,14.19
2023-06-10T01:33:26.146Z,14.25
2023-06-10T01:35:58.552Z,14.17
2023-06-10T01:38:31.891Z,14.15
2023-06-10T01:41:00.413Z,14.14
2023-06-10T01:43:28.942Z,14.25
2023-06-10T01:45:56.934Z,14.18
2023-06-10T01:48:25.892Z,14.12
2023-06-10T01:50:54.090Z,14.15
2023-06-10T01:53:23.099Z,13.98
2023-06-10T01:55:52.865Z,14.00
2023-06-10T01:58:21.362Z,14.03
2023-06-10T02:00:49.633Z,13.83
2023-06-10T02:03:18.859Z,13.81
2023-06-10T02:05:46.972Z,13.69
2023-06-10T02:08:18.173Z,13.61
2023-06-10T02:10:46.224Z,13.66
2023-06-10T02:13:16.514Z,13.64
2023-06-10T02:15:44.967Z,13.68
2023-06-10T02:18:14.700Z,13.68
2023-06-10T02:20:42.673Z,13.71
2023-06-10T02:23:11.618Z,13.69
2023-06-10T02:25:39.618Z,13.67
2023-06-10T02:28:08.141Z,13.60
2023-06-10T02:30:38.461Z,13.68
2023-06-10T02:33:06.327Z,13.71
2023-06-10T02:35:35.000Z,13.57
2023-06-10T02:38:03.066Z,13.61
2023-06-10T02:40:32.344Z,13.51
2023-06-10T02:43:00.484Z,13.35
2023-06-10T02:45:31.079Z,13.35
2023-06-10T02:48:02.188Z,13.39
2023-06-10T02:50:32.308Z,13.26
2023-06-10T02:53:12.374Z,13.23
2023-06-10T02:55:45.698Z,13.26
2023-06-10T02:58:16.606Z,13.22
2023-06-10T03:00:46.694Z,13.22
2023-06-10T03:03:17.143Z,13.18
2023-06-10T03:05:55.088Z,13.28
2023-06-10T03:08:24.564Z,13.23
2023-06-10T03:10:52.685Z,13.41
2023-06-10T03:13:22.151Z,13.47
2023-06-10T03:15:51.199Z,13.40
2023-06-10T03:18:25.235Z,13.37
2023-06-10T03:20:54.358Z,13.51
2023-06-10T03:23:24.006Z,13.34
2023-06-10T03:25:53.174Z,13.36
2023-06-10T03:28:22.083Z,13.30
2023-06-10T03:30:51.243Z,13.20
2023-06-10T03:33:19.321Z,13.26
2023-06-10T03:35:49.381Z,13.15
2023-06-10T03:38:17.520Z,13.30
2023-06-10T03:40:46.203Z,13.33
2023-06-10T03:43:14.374Z,13.47
2023-06-10T03:45:43.104Z,13.57
2023-06-10T03:48:12.728Z,13.51
2023-06-10T03:50:52.305Z,13.75
2023-06-10T03:53:22.118Z,13.89
2023-06-10T03:55:51.381Z,13.74
2023-06-10T03:58:23.998Z,13.74
2023-06-10T04:00:52.054Z,13.76
2023-06-10T04:03:25.358Z,13.81
2023-06-10T04:05:55.714Z,13.83
2023-06-10T04:08:27.834Z,13.88
2023-06-10T04:10:55.982Z,14.06
2023-06-10T04:13:24.911Z,14.29
2023-06-10T04:15:56.729Z,14.31
2023-06-10T04:18:25.682Z,14.36
2023-06-10T04:20:58.215Z,14.60
2023-06-10T04:23:27.334Z,14.65
2023-06-10T04:25:55.582Z,14.64
2023-06-10T04:28:25.190Z,14.57
2023-06-10T04:30:53.163Z,14.61
2023-06-10T04:33:22.178Z,14.85
2023-06-10T04:35:50.296Z,14.85
2023-06-10T04:38:22.107Z,14.89
2023-06-10T04:40:50.210Z,14.86
2023-06-10T04:43:19.994Z,14.90
2023-06-10T04:45:48.770Z,14.80
2023-06-10T04:48:17.976Z,14.74
2023-06-10T04:50:45.961Z,14.90
2023-06-10T04:53:15.768Z,14.97
2023-06-10T04:55:49.336Z,15.07
2023-06-10T04:58:18.314Z,15.05
2023-06-10T05:00:46.267Z,15.35
2023-06-10T05:03:14.884Z,15.40
2023-06-10T05:05:42.951Z,15.56
2023-06-10T05:08:11.846Z,15.61
2023-06-10T05:10:39.815Z,15.75
2023-06-10T05:13:10.164Z,15.76
2023-06-10T05:15:38.140Z,15.92
2023-06-10T05:18:07.215Z,15.88
2023-06-10T05:20:35.231Z,16.06
2023-06-10T05:23:04.569Z,16.04
2023-06-10T05:25:33.637Z,16.14
2023-06-10T05:28:02.656Z,16.26
2023-06-10T05:30:32.102Z,16.30
2023-06-10T05:33:00.856Z,16.35
2023-06-10T05:35:28.839Z,16.40
2023-06-10T05:37:57.338Z,16.29
2023-06-10T05:40:25.508Z,16.46
2023-06-10T05:42:53.552Z,16.60
2023-06-10T05:45:22.021Z,16.47
2023-06-10T05:47:51.973Z,16.54
2023-06-10T05:50:21.086Z,16.87
2023-06-10T05:52:49.118Z,16.99
2023-06-10T05:55:17.555Z,17.08
2023-06-10T05:57:45.522Z,17.10
2023-06-10T06:00:15.174Z,17.20
2023-06-10T06:02:43.797Z,17.23
2023-06-10T06:05:14.285Z,17.36
2023-06-10T06:07:42.550Z,17.49
2023-06-10T06:10:11.858Z,17.46
2023-06-10T06:12:40.119Z,17.58
2023-06-10T06:15:10.826Z,17.69
2023-06-10T06:17:39.220Z,17.73
2023-06-10T06:20:09.258Z,17.64
2023-06-10T06:22:38.684Z,17.67
2023-06-10T06:25:09.131Z,17.72
2023-06-10T06:27:37.730Z,18.00
2023-06-10T06:30:07.265Z,17.74
2023-06-10T06:32:35.818Z,17.97
2023-06-10T06:35:06.598Z,18.06
2023-06-10T06:37:34.905Z,18.08
2023-06-10T06:40:28.505Z,18.13
2023-06-10T06:42:56.529Z,18.41
2023-06-10T06:45:43.940Z,18.19
2023-06-10T06:48:12.083Z,18.32
2023-06-10T06:50:42.790Z,18.43
2023-06-10T06:53:10.788Z,18.49
2023-06-10T06:55:41.114Z,18.49
2023-06-10T06:58:09.218Z,18.66
2023-06-10T07:00:37.740Z,18.68
2023-06-10T07:03:05.909Z,18.84
2023-06-10T07:05:35.047Z,18.70
2023-06-10T07:08:03.132Z,18.83
2023-06-10T07:10:32.120Z,18.86
2023-06-10T07:13:01.461Z,18.94
2023-06-10T07:15:29.940Z,19.02
2023-06-10T07:17:58.040Z,19.11
2023-06-10T07:20:26.535Z,19.16
2023-06-10T07:22:54.724Z,19.37
2023-06-10T07:25:23.439Z,19.47
2023-06-10T07:27:51.632Z,19.24
2023-06-10T07:30:21.588Z,19.33
2023-06-10T07:32:49.646Z,19.45
2023-06-10T07:35:18.793Z,19.53
2023-06-10T07:37:46.877Z,19.72
2023-06-10T07:40:15.641Z,19.75
2023-06-10T07:42:44.307Z,19.89
2023-06-10T07:45:13.473Z,19.93
2023-06-10T07:47:42.951Z,20.02
2023-06-10T07:50:12.083Z,20.13
2023-06-10T07:52:41.013Z,20.25
2023-06-10T07:55:09.822Z,20.06
2023-06-10T07:57:40.076Z,20.11
2023-06-10T08:00:09.324Z,20.13
2023-06-10T08:02:45.173Z,20.30
2023-06-10T08:05:13.639Z,20.48
2023-06-10T08:07:43.191Z,20.40
2023-06-10T08:10:12.142Z,20.31
2023-06-10T08:12:41.177Z,20.51
2023-06-10T08:15:11.418Z,20.69
2023-06-10T08:17:40.819Z,20.86
2023-06-10T08:20:10.888Z,20.90
2023-06-10T08:22:41.003Z,20.89
2023-06-10T08:25:10.662Z,20.98
2023-06-10T08:27:38.902Z,20.92
2023-06-10T08:30:09.023Z,21.08
2023-06-10T08:32:37.528Z,21.12
2023-06-10T08:35:06.688Z,21.21
2023-06-10T08:37:37.077Z,21.37
2023-06-10T08:40:06.180Z,21.43
2023-06-10T08:42:41.215Z,21.41
2023-06-10T08:45:11.920Z,21.27
2023-06-10T08:47:44.345Z,21.62
2023-06-10T08:50:12.975Z,21.80
2023-06-10T08:52:45.401Z,21.91
2023-06-10T08:55:16.257Z,21.94
2023-06-10T08:57:46.103Z,22.21
2023-06-10T09:00:15.776Z,22.35
2023-06-10T09:02:44.389Z,22.38
2023-06-10T09:05:13.301Z,22.55
2023-06-10T09:07:42.026Z,22.54
2023-06-10T09:10:13.458Z,22.79
2023-06-10T09:12:42.000Z,22.88
2023-06-10T09:15:12.940Z,22.87
2023-06-10T09:17:42.603Z,22.85
2023-06-10T09:20:11.499Z,22.75
2023-06-10T09:22:40.246Z,22.78
2023-06-10T09:25:10.073Z,23.05
2023-06-10T09:27:50.984Z,22.95
2023-06-10T09:30:28.304Z,22.89
2023-06-10T09:32:58.902Z,22.93
2023-06-10T09:35:28.083Z,23.00
2023-06-10T09:37:58.128Z,23.25
2023-06-10T09:40:26.518Z,23.39
2023-06-10T09:42:58.580Z,23.37
2023-06-10T09:45:32.017Z,23.51
2023-06-10T09:48:00.386Z,23.52
2023-06-10T09:50:28.520Z,23.51
2023-06-10T09:52:56.615Z,23.45
2023-06-10T09:55:26.169Z,23.32
2023-06-10T09:57:57.445Z,23.74
2023-06-10T10:00:27.100Z,23.73
2023-06-10T10:02:55.871Z,23.64
2023-06-10T10:05:25.057Z,23.96
2023-06-10T10:07:54.276Z,23.87
2023-06-10T10:10:23.782Z,24.19
2023-06-10T10:12:58.341Z,24.23
2023-06-10T10:15:33.714Z,23.92
2023-06-10T10:18:08.749Z,23.85
2023-06-10T10:20:44.250Z,23.94
2023-06-10T10:23:14.713Z,24.03
2023-06-10T10:25:45.385Z,23.98
2023-06-10T10:28:17.726Z,24.09
2023-06-10T10:30:53.670Z,24.25
2023-06-10T10:33:25.016Z,24.68
2023-06-10T10:35:55.323Z,24.77
2023-06-10T10:38:24.448Z,24.72
2023-06-10T10:40:54.156Z,24.80
2023-06-10T10:43:23.963Z,24.53
2023-06-10T10:46:01.210Z,24.61
2023-06-10T10:48:36.392Z,24.76
2023-06-10T10:51:27.026Z,24.80
2023-06-10T10:54:14.967Z,24.57
2023-06-10T10:57:13.129Z,24.58
2023-06-10T11:00:03.268Z,24.58
2023-06-10T11:02:40.724Z,24.79
2023-06-10T11:05:10.652Z,25.20
2023-06-10T11:07:39.205Z,24.96
2023-06-10T11:10:11.503Z,25.15
2023-06-10T11:12:55.371Z,25.47
2023-06-10T11:15:28.129Z,25.57
2023-06-10T11:18:15.939Z,25.40
2023-06-10T11:21:05.930Z,25.57
2023-06-10T11:23:36.903Z,25.72
2023-06-10T11:26:20.788Z,26.02
2023-06-10T11:29:10.240Z,25.75
2023-06-10T11:31:58.876Z,25.90
2023-06-10T11:34:28.333Z,25.84
2023-06-10T11:36:56.967Z,25.68
2023-06-10T11:39:27.310Z,25.42
2023-06-10T11:41:57.209Z,25.75
2023-06-10T11:44:31.070Z,26.00
2023-06-10T11:47:00.815Z,26.15
2023-06-10T11:49:29.293Z,25.79
2023-06-10T11:51:57.607Z,26.12
2023-06-10T11:54:26.590Z,26.44
2023-06-10T11:57:00.413Z,26.77
2023-06-10T11:59:30.706Z,26.31
2023-06-10T12:02:00.663Z,26.26
2023-06-10T12:04:28.682Z,26.23
2023-06-10T12:06:57.251Z,26.54
2023-06-10T12:09:27.997Z,26.86
2023-06-10T12:12:00.492Z,26.81
2023-06-10T12:15:06.985Z,26.59
2023-06-10T12:17:40.347Z,26.58
2023-06-10T12:20:11.315Z,26.82
2023-06-10T12:22:44.227Z,27.05
2023-06-10T12:25:13.938Z,27.88
2023-06-10T12:27:52.653Z,28.21
2023-06-10T12:30:22.587Z,28.59
2023-06-10T12:32:53.442Z,28.62
2023-06-10T12:35:23.455Z,29.17
2023-06-10T12:37:58.997Z,29.15
2023-06-10T12:40:31.279Z,28.76
2023-06-10T12:42:59.634Z,29.50
2023-06-10T12:45:32.247Z,29.41
2023-06-10T12:48:10.094Z,29.56
2023-06-10T12:50:40.626Z,30.62
2023-06-10T12:53:09.844Z,30.59
2023-06-10T12:55:38.334Z,30.26
2023-06-10T12:58:06.577Z,30.28
2023-06-10T13:00:36.275Z,30.94
2023-06-10T13:03:06.961Z,31.29
2023-06-10T13:05:38.544Z,31.28
2023-06-10T13:08:07.516Z,31.82
2023-06-10T13:10:35.964Z,30.66
2023-06-10T13:13:06.804Z,32.12
2023-06-10T13:15:39.436Z,30.90
2023-06-10T13:18:10.011Z,31.40
2023-06-10T13:20:39.573Z,31.73
2023-06-10T13:23:07.661Z,31.24
2023-06-10T13:25:36.663Z,31.35
2023-06-10T13:28:04.768Z,32.50
2023-06-10T13:30:33.260Z,32.82
2023-06-10T13:33:01.798Z,32.08
2023-06-10T13:35:29.984Z,31.60
2023-06-10T13:37:59.865Z,32.03
2023-06-10T13:40:28.054Z,32.26
2023-06-10T13:42:56.797Z,33.29
2023-06-10T13:45:25.857Z,32.19
2023-06-10T13:47:54.802Z,32.64
2023-06-10T13:50:22.681Z,33.04
2023-06-10T13:52:50.936Z,33.12
2023-06-10T13:55:21.406Z,33.23
2023-06-10T13:57:49.808Z,33.36
2023-06-10T14:00:18.775Z,33.86
2023-06-10T14:02:47.827Z,33.09
2023-06-10T14:05:16.046Z,33.54
2023-06-10T14:07:44.119Z,33.63
2023-06-10T14:10:12.571Z,33.61
2023-06-10T14:12:43.557Z,34.65
2023-06-10T14:15:12.657Z,34.72
2023-06-10T14:17:41.479Z,34.99
2023-06-10T14:20:10.453Z,34.65
2023-06-10T14:22:39.478Z,34.82
2023-06-10T14:25:08.906Z,33.96
2023-06-10T14:27:37.772Z,33.99
2023-06-10T14:30:08.635Z,34.71
2023-06-10T14:32:37.541Z,34.15
2023-06-10T14:35:06.302Z,33.87
2023-06-10T14:37:35.442Z,34.37
2023-06-10T14:40:03.420Z,35.58
2023-06-10T14:42:33.604Z,34.73
2023-06-10T14:45:02.329Z,35.39
2023-06-10T14:47:32.375Z,34.86
2023-06-10T14:50:00.553Z,35.34
2023-06-10T14:52:29.133Z,34.24
2023-06-10T14:54:58.224Z,34.64
2023-06-10T14:57:26.925Z,35.38
2023-06-10T14:59:54.922Z,34.26
2023-06-10T15:02:23.776Z,34.83
2023-06-10T15:04:53.246Z,35.07
2023-06-10T15:07:21.646Z,33.66
2023-06-10T15:09:49.695Z,34.29
2023-06-10T15:12:18.197Z,33.47
2023-06-10T15:14:46.185Z,35.34
2023-06-10T15:17:14.616Z,35.27
2023-06-10T15:19:43.073Z,34.96
2023-06-10T15:22:13.035Z,34.94
2023-06-10T15:24:41.577Z,35.24
2023-06-10T15:27:09.562Z,35.21
2023-06-10T15:29:38.118Z,35.22
2023-06-10T15:32:06.960Z,34.94
2023-06-10T15:34:35.957Z,35.54
2023-06-10T15:37:04.321Z,34.68
2023-06-10T15:39:34.806Z,34.26
2023-06-10T15:42:02.781Z,35.86
2023-06-10T15:44:31.744Z,34.43
2023-06-10T15:47:00.302Z,34.82
2023-06-10T15:49:28.355Z,35.19
2023-06-10T15:51:56.549Z,35.15
2023-06-10T15:54:24.623Z,35.10
2023-06-10T15:56:53.950Z,36.31
2023-06-10T15:59:22.896Z,34.60
2023-06-10T16:01:50.951Z,35.40
2023-06-10T16:04:19.997Z,35.28
2023-06-10T16:06:49.464Z,36.08
2023-06-10T16:09:18.580Z,35.80
2023-06-10T16:11:46.540Z,34.59
2023-06-10T16:14:16.411Z,35.52
2023-06-10T16:16:44.452Z,36.34
2023-06-10T16:19:12.998Z,35.68
2023-06-10T16:21:41.717Z,34.92
2023-06-10T16:24:11.137Z,35.70
2023-06-10T16:26:39.244Z,34.80
2023-06-10T16:29:08.235Z,33.28
2023-06-10T16:31:37.710Z,34.41
2023-06-10T16:34:06.157Z,34.71
2023-06-10T16:36:34.159Z,35.21
2023-06-10T16:39:03.159Z,35.42
2023-06-10T16:41:31.139Z,35.39
2023-06-10T16:44:02.757Z,33.82
2023-06-10T16:46:33.155Z,34.37
2023-06-10T16:49:02.590Z,36.23
2023-06-10T16:51:31.547Z,35.34
2023-06-10T16:53:59.536Z,35.65
2023-06-10T16:56:28.545Z,35.03
2023-06-10T16:58:56.562Z,36.10
2023-06-10T17:01:25.057Z,36.18
2023-06-10T17:03:53.634Z,35.73
2023-06-10T17:06:23.485Z,35.75
2023-06-10T17:08:52.312Z,35.48
2023-06-10T17:11:23.066Z,35.48
2023-06-10T17:13:51.432Z,33.63
2023-06-10T17:16:20.454Z,33.88
2023-06-10T17:18:48.491Z,33.95
2023-06-10T17:21:16.583Z,34.50
2023-06-10T17:23:46.056Z,33.82
2023-06-10T17:26:15.243Z,33.91
2023-06-10T17:28:43.257Z,33.13
2023-06-10T17:31:12.239Z,32.69
2023-06-10T17:33:40.277Z,32.53
2023-06-10T17:36:09.339Z,32.79
2023-06-10T17:38:37.329Z,33.08
2023-06-10T17:41:08.841Z,32.40
2023-06-10T17:43:36.806Z,31.70
2023-06-10T17:46:05.831Z,31.75
2023-06-10T17:48:33.818Z,32.12
2023-06-10T17:51:02.351Z,32.62
2023-06-10T17:53:30.382Z,31.67
2023-06-10T17:56:01.906Z,31.41
2023-06-10T17:58:31.693Z,31.41
2023-06-10T18:01:01.009Z,31.16
2023-06-10T18:03:29.133Z,30.94
2023-06-10T18:05:57.918Z,31.38
2023-06-10T18:08:25.938Z,31.71
2023-06-10T18:10:54.579Z,30.88
2023-06-10T18:13:22.583Z,30.54
2023-06-10T18:15:52.524Z,30.46
2023-06-10T18:18:20.587Z,30.08
2023-06-10T18:20:49.103Z,30.30
2023-06-10T18:23:17.229Z,29.82
2023-06-10T18:25:45.320Z,29.12
2023-06-10T18:28:14.245Z,28.60
2023-06-10T18:30:42.306Z,28.39
2023-06-10T18:33:12.663Z,27.95
2023-06-10T18:35:40.783Z,28.57
2023-06-10T18:38:09.494Z,28.62
2023-06-10T18:40:37.468Z,28.82
2023-06-10T18:43:06.083Z,28.54
2023-06-10T18:45:34.109Z,28.46
2023-06-10T18:48:03.227Z,27.68
2023-06-10T18:50:32.741Z,27.19
2023-06-10T18:53:01.173Z,26.68
2023-06-10T18:55:33.196Z,26.82
2023-06-10T18:58:01.972Z,26.63
2023-06-10T19:00:30.017Z,26.27
2023-06-10T19:02:58.652Z,25.94
2023-06-10T19:05:26.806Z,25.74
2023-06-10T19:07:56.704Z,25.27
2023-06-10T19:10:24.745Z,25.27
2023-06-10T19:12:53.804Z,25.14
2023-06-10T19:15:22.149Z,24.57
2023-06-10T19:17:52.426Z,24.21
2023-06-10T19:20:20.577Z,24.07
2023-06-10T19:22:48.552Z,23.86
2023-06-10T19:25:20.144Z,23.77
2023-06-10T19:27:49.238Z,23.65
2023-06-10T19:30:17.240Z,23.46
2023-06-10T19:32:46.350Z,23.27
2023-06-10T19:35:14.597Z,23.17
2023-06-10T19:37:43.535Z,23.09
2023-06-10T19:40:12.436Z,22.86
2023-06-10T19:42:42.742Z,22.85
2023-06-10T19:45:11.371Z,22.71
2023-06-10T19:47:40.614Z,22.72
2023-06-10T19:50:09.138Z,22.57
2023-06-10T19:52:37.758Z,22.54
2023-06-10T19:55:06.866Z,22.41
2023-06-10T19:57:35.022Z,22.22
2023-06-10T20:00:05.431Z,22.08
2023-06-10T20:02:41.526Z,22.12
2023-06-10T20:05:10.310Z,22.05
2023-06-10T20:07:38.581Z,21.96
2023-06-10T20:10:07.055Z,21.89
2023-06-10T20:12:35.179Z,21.74
2023-06-10T20:15:04.999Z,21.54
2023-06-10T20:17:33.110Z,21.39
2023-06-10T20:20:01.706Z,21.26
2023-06-10T20:22:29.835Z,20.87
2023-06-10T20:24:57.925Z,20.62
2023-06-10T20:27:26.054Z,20.37
2023-06-10T20:29:57.160Z,20.52
2023-06-10T20:32:29.054Z,20.48
2023-06-10T20:34:58.318Z,20.19
2023-06-10T20:37:26.809Z,19.70
2023-06-10T20:39:55.610Z,19.67
2023-06-10T20:42:23.648Z,19.63
2023-06-10T20:44:52.406Z,19.56
2023-06-10T20:47:20.624Z,19.65
2023-06-10T20:49:50.065Z,19.74
2023-06-10T20:52:18.178Z,19.56
2023-06-10T20:54:46.311Z,19.36
2023-06-10T20:57:14.813Z,19.48
2023-06-10T20:59:42.879Z,19.20
2023-06-10T21:02:11.086Z,19.06
2023-06-10T21:04:39.269Z,18.84
2023-06-10T21:07:09.409Z,18.78
2023-06-10T21:09:37.991Z,18.75
2023-06-10T21:12:07.280Z,18.81
2023-06-10T21:14:35.404Z,18.77
2023-06-10T21:17:03.397Z,18.81
2023-06-10T21:19:31.443Z,18.55
2023-06-10T21:22:01.909Z,18.26
2023-06-10T21:24:32.760Z,18.08
2023-06-10T21:27:01.284Z,18.04
2023-06-10T21:29:29.779Z,17.99
2023-06-10T21:31:58.537Z,17.91
2023-06-10T21:34:27.515Z,18.12
2023-06-10T21:36:56.104Z,18.17
2023-06-10T21:39:24.091Z,18.12
2023-06-10T21:41:53.505Z,18.15
2023-06-10T21:44:22.148Z,17.95
2023-06-10T21:46:50.241Z,17.76
2023-06-10T21:49:19.445Z,17.84
2023-06-10T21:51:47.504Z,17.80
2023-06-10T21:54:15.525Z,17.71
2023-06-10T21:56:48.264Z,17.63
2023-06-10T21:59:19.330Z,17.60
2023-06-10T22:01:47.529Z,17.78
2023-06-10T22:04:16.295Z,17.85
2023-06-10T22:06:45.092Z,17.70
2023-06-10T22:09:13.099Z,17.54
2023-06-10T22:11:41.128Z,17.46
2023-06-10T22:14:09.154Z,17.51
2023-06-10T22:16:38.629Z,17.33
2023-06-10T22:19:08.550Z,17.34
2023-06-10T22:21:37.586Z,17.38
2023-06-10T22:24:07.471Z,17.45
2023-06-10T22:26:52.225Z,17.22
2023-06-10T22:29:21.846Z,17.25
2023-06-10T22:31:51.872Z,17.33
2023-06-10T22:34:20.050Z,17.13
2023-06-10T22:36:48.557Z,17.12
2023-06-10T22:39:17.267Z,17.14
2023-06-10T22:41:45.809Z,17.38
2023-06-10T22:44:14.308Z,17.52
2023-06-10T22:46:43.213Z,17.58
2023-06-10T22:49:13.187Z,17.48
2023-06-10T22:51:42.571Z,17.42
2023-06-10T22:54:11.046Z,17.29
2023-06-10T22:56:39.052Z,17.25
2023-06-10T22:59:08.315Z,17.20
2023-06-10T23:01:36.356Z,17.06
2023-06-10T23:04:05.172Z,16.95
2023-06-10T23:06:35.496Z,16.93
2023-06-10T23:09:03.871Z,17.05
2023-06-10T23:11:32.817Z,16.99
2023-06-10T23:14:00.784Z,16.70
2023-06-10T23:16:29.350Z,16.44
2023-06-10T23:18:57.687Z,16.36
2023-06-10T23:21:30.236Z,16.54
2023-06-10T23:24:01.961Z,16.57
2023-06-10T23:26:30.103Z,16.51
2023-06-10T23:28:58.989Z,16.51
2023-06-10T23:31:27.288Z,16.60
2023-06-10T23:33:56.271Z,16.70
2023-06-10T23:36:24.848Z,16.37
2023-06-10T23:38:53.750Z,16.26
2023-06-10T23:41:23.657Z,16.33
2023-06-10T23:43:51.692Z,16.19
2023-06-10T23:46:20.220Z,16.15
2023-06-10T23:48:49.185Z,15.99
2023-06-10T23:51:17.235Z,15.98
2023-06-10T23:53:45.669Z,15.92
2023-06-10T23:56:15.197Z,16.07
2023-06-10T23:58:44.530Z,15.89
